createdAt,value
2019-02-07T00:04:35.115Z,94.70
2019-02-07T00:19:52.504Z,94.70
2019-02-07T00:34:59.153Z,94.70
2019-02-07T00:50:05.181Z,94.60
2019-02-07T01:05:11.140Z,94.60
2019-02-07T01:20:17.050Z,94.50
2019-02-07T01:35:22.030Z,94.30
2019-02-07T01:50:27.436Z,94.50
2019-02-07T02:05:32.246Z,94.70
2019-02-07T02:20:49.546Z,95.30
2019-02-07T02:35:54.357Z,95.20
2019-02-07T02:50:59.176Z,95.40
2019-02-07T03:06:17.718Z,95.10
2019-02-07T03:21:36.719Z,94.90
2019-02-07T03:36:55.149Z,95.00
2019-02-07T03:52:14.327Z,94.90
2019-02-07T04:07:21.001Z,95.10
2019-02-07T04:22:27.358Z,95.30
2019-02-07T04:37:33.706Z,95.40
2019-02-07T04:52:39.999Z,95.70
2019-02-07T05:07:58.369Z,95.80
2019-02-07T05:23:04.671Z,96.10
2019-02-07T05:38:30.672Z,96.10
2019-02-07T05:53:36.794Z,96.00
2019-02-07T06:08:43.374Z,95.90
2019-02-07T06:23:50.408Z,95.80
2019-02-07T06:39:16.052Z,95.90
2019-02-07T06:54:34.889Z,95.70
2019-02-07T07:09:41.961Z,95.60
2019-02-07T07:24:48.854Z,95.70
2019-02-07T07:39:55.084Z,95.40
2019-02-07T07:55:21.110Z,95.10
2019-02-07T08:10:27.563Z,94.90
2019-02-07T08:25:34.610Z,94.20
2019-02-07T08:40:41.167Z,93.20
2019-02-07T08:55:47.799Z,92.50
2019-02-07T09:10:54.262Z,90.70
2019-02-07T09:26:00.503Z,87.60
2019-02-07T09:41:19.422Z,83.70
2019-02-07T09:56:26.100Z,79.60
2019-02-07T10:11:32.290Z,76.10
2019-02-07T10:26:38.544Z,73.00
2019-02-07T10:41:45.110Z,71.50
2019-02-07T10:56:52.514Z,68.20
2019-02-07T11:12:00.113Z,64.60
2019-02-07T11:27:06.319Z,64.90
2019-02-07T11:42:12.715Z,62.60
2019-02-07T11:57:19.207Z,62.40
2019-02-07T12:12:25.517Z,59.60
2019-02-07T12:27:32.057Z,60.00
2019-02-07T12:42:50.740Z,62.50
2019-02-07T12:57:57.577Z,62.90
2019-02-07T13:13:04.654Z,63.10
2019-02-07T13:28:11.123Z,63.80
2019-02-07T13:43:17.355Z,65.50
2019-02-07T13:58:23.655Z,65.70
2019-02-07T14:13:49.568Z,65.00
2019-02-07T14:28:56.186Z,65.10
2019-02-07T14:44:02.887Z,69.10
2019-02-07T14:59:07.736Z,70.70
2019-02-07T15:14:12.665Z,73.90
2019-02-07T15:29:17.712Z,75.40
2019-02-07T15:44:22.535Z,76.70
2019-02-07T15:59:28.774Z,77.60
2019-02-07T16:14:33.391Z,78.90
2019-02-07T16:29:50.875Z,80.30
2019-02-07T16:44:55.461Z,82.30
2019-02-07T17:00:00.117Z,83.30
2019-02-07T17:15:16.802Z,83.90
2019-02-07T17:30:22.579Z,84.40
2019-02-07T17:45:29.983Z,83.80
2019-02-07T18:00:49.060Z,81.20
2019-02-07T18:15:57.499Z,79.90
2019-02-07T18:31:02.024Z,80.50
2019-02-07T18:46:07.021Z,80.20
2019-02-07T19:01:13.291Z,79.50
2019-02-07T19:16:30.657Z,79.90
2019-02-07T19:31:35.737Z,81.20
2019-02-07T19:46:54.843Z,82.20
2019-02-07T20:01:58.514Z,83.20
2019-02-07T20:17:08.252Z,83.80
2019-02-07T20:32:20.851Z,84.60
2019-02-07T21:03:10.066Z,87.50
2019-02-07T21:18:16.151Z,88.30
2019-02-07T21:33:20.982Z,88.20
2019-02-07T21:48:41.562Z,90.20
2019-02-07T22:03:53.430Z,91.20
2019-02-07T22:18:59.510Z,92.80
2019-02-07T22:34:16.245Z,95.50
2019-02-07T22:49:32.910Z,97.00
2019-02-07T23:04:37.842Z,98.10
2019-02-07T23:19:42.377Z,98.80
2019-02-07T23:34:59.567Z,99.20
2019-02-07T23:50:16.350Z,99.30
